Time;durP1;ratioP1;P1;durP2;ratioP2;P2;SDS_P1;SDS_P2;PMS_P1;PMS_P2;Temp;Humidity;BMP_temperature;BMP_pressure;BME280_temperature;BME280_humidity;BME280_pressure;Samples;Min_cycle;Max_cycle;Signal;HPM_P1;HPM_P2
2022/02/28 00:01:47;;;;;;;;;;;4.80;99.90;;;;;;5123795;27;19924;-80
2022/02/28 00:04:15;;;;;;;;;;;5.10;99.90;;;;;;5123786;27;19942;-80
2022/02/28 00:06:43;;;;;;;;;;;5.20;99.90;;;;;;5110258;28;19934;-80
2022/02/28 00:09:11;;;;;;;;;;;5.10;99.90;;;;;;5089819;28;19938;-80
2022/02/28 00:11:39;;;;;;;;;;;5.10;99.90;;;;;;5115872;28;19928;-78
2022/02/28 00:14:07;;;;;;;;;;;5.20;99.90;;;;;;5086524;28;19931;-80
2022/02/28 00:16:35;;;;;;;;;;;5.00;99.90;;;;;;5106090;28;19928;-81
2022/02/28 00:19:04;;;;;;;;;;;6.60;99.90;;;;;;5070635;28;20191;-79
2022/02/28 00:21:33;;;;;;;;;;;5.10;99.90;;;;;;5116750;28;19934;-80
2022/02/28 00:24:01;;;;;;;;;;;5.10;99.90;;;;;;5092028;28;19954;-78
2022/02/28 00:26:28;;;;;;;;;;;5.10;99.90;;;;;;5108368;28;19924;-80
2022/02/28 00:28:56;;;;;;;;;;;5.20;99.90;;;;;;5102342;28;20444;-81
2022/02/28 00:31:24;;;;;;;;;;;6.00;99.90;;;;;;5106427;28;19936;-80
2022/02/28 00:33:52;;;;;;;;;;;5.10;99.90;;;;;;5071580;28;19931;-80
2022/02/28 00:36:20;;;;;;;;;;;3.70;99.90;;;;;;5071942;28;19928;-79
2022/02/28 00:38:51;;;;;;;;;;;5.40;99.90;;;;;;5067515;28;19928;-80
2022/02/28 00:41:19;;;;;;;;;;;5.20;99.90;;;;;;5085082;28;19925;-79
2022/02/28 00:43:47;;;;;;;;;;;5.30;99.90;;;;;;5100136;28;19932;-79
2022/02/28 00:46:16;;;;;;;;;;;5.40;99.90;;;;;;5083708;28;19928;-80
2022/02/28 00:48:44;;;;;;;;;;;5.40;99.90;;;;;;5119341;28;19928;-80
2022/02/28 00:51:13;;;;;;;;;;;5.30;99.90;;;;;;5097953;28;19924;-83
2022/02/28 00:53:40;;;;;;;;;;;4.30;99.90;;;;;;5091465;28;19950;-80
2022/02/28 00:56:09;;;;;;;;;;;5.30;99.90;;;;;;5103985;28;19928;-80
2022/02/28 00:58:37;;;;;;;;;;;5.30;99.90;;;;;;5104428;28;19928;-79
2022/02/28 01:01:05;;;;;;;;;;;5.40;99.90;;;;;;5091057;28;19939;-81
2022/02/28 01:03:34;;;;;;;;;;;5.40;99.90;;;;;;5114131;28;19932;-80
2022/02/28 01:06:02;;;;;;;;;;;5.40;99.90;;;;;;5106272;28;19924;-81
2022/02/28 01:08:30;;;;;;;;;;;5.40;99.90;;;;;;5105436;28;19928;-81
2022/02/28 01:10:59;;;;;;;;;;;5.40;99.90;;;;;;5089045;28;19924;-79
2022/02/28 01:13:32;;;;;;;;;;;5.40;99.90;;;;;;5087788;28;19934;-80
2022/02/28 01:16:01;;;;;;;;;;;5.40;99.90;;;;;;5069602;28;19928;-81
2022/02/28 01:18:30;;;;;;;;;;;5.50;99.90;;;;;;5059472;28;20407;-79
2022/02/28 01:20:57;;;;;;;;;;;3.90;99.90;;;;;;5118995;27;19923;-81
2022/02/28 01:23:27;;;;;;;;;;;5.50;99.90;;;;;;5110492;28;19923;-78
2022/02/28 01:25:55;;;;;;;;;;;5.50;99.90;;;;;;5110125;28;19934;-78
2022/02/28 01:28:22;;;;;;;;;;;5.60;99.90;;;;;;5108798;28;19920;-79
2022/02/28 01:30:51;;;;;;;;;;;5.60;99.90;;;;;;5108835;28;19931;-82
2022/02/28 01:33:22;;;;;;;;;;;5.50;99.90;;;;;;5061109;28;19931;-80
2022/02/28 01:35:52;;;;;;;;;;;5.60;99.90;;;;;;5084730;28;19925;-80
2022/02/28 01:38:20;;;;;;;;;;;4.70;99.90;;;;;;5127849;27;19928;-78
2022/02/28 01:40:54;;;;;;;;;;;5.50;99.90;;;;;;5078628;28;19932;-81
2022/02/28 01:43:23;;;;;;;;;;;5.50;99.90;;;;;;5107808;28;19928;-80
2022/02/28 01:45:51;;;;;;;;;;;5.50;99.90;;;;;;5088712;28;19930;-79
2022/02/28 01:48:20;;;;;;;;;;;5.60;99.90;;;;;;5096146;28;19928;-80
2022/02/28 01:50:50;;;;;;;;;;;5.90;99.90;;;;;;5129555;27;19923;-81
2022/02/28 01:53:20;;;;;;;;;;;5.50;99.90;;;;;;5091094;28;19924;-81
2022/02/28 01:55:48;;;;;;;;;;;5.50;99.90;;;;;;5124753;28;19924;-80
2022/02/28 01:58:16;;;;;;;;;;;5.50;99.90;;;;;;5106972;28;19924;-80
2022/02/28 02:00:45;;;;;;;;;;;5.60;99.90;;;;;;5123449;28;19932;-80
2022/02/28 02:03:13;;;;;;;;;;;5.60;99.90;;;;;;5097341;28;19940;-80
2022/02/28 02:05:41;;;;;;;;;;;5.50;99.90;;;;;;5087423;28;19924;-80
2022/02/28 02:08:09;;;;;;;;;;;5.80;99.90;;;;;;5070934;28;20300;-80
2022/02/28 02:10:43;;;;;;;;;;;5.50;99.90;;;;;;5087401;28;19928;-79
2022/02/28 02:13:13;;;;;;;;;;;5.50;99.90;;;;;;5099162;28;19946;-80
2022/02/28 02:15:41;;;;;;;;;;;5.50;99.90;;;;;;5106117;28;19931;-80
2022/02/28 02:18:09;;;;;;;;;;;5.50;99.90;;;;;;5125137;28;19934;-79
2022/02/28 02:20:39;;;;;;;;;;;5.50;99.90;;;;;;5107092;28;19938;-77
2022/02/28 02:23:13;;;;;;;;;;;5.50;99.90;;;;;;5090213;28;19927;-82
2022/02/28 02:25:43;;;;;;;;;;;5.50;99.90;;;;;;5127286;28;19927;-81
2022/02/28 02:28:19;;;;;;;;;;;4.90;99.90;;;;;;5110396;28;19924;-80
2022/02/28 02:30:55;;;;;;;;;;;6.10;99.90;;;;;;5094168;28;19928;-81
2022/02/28 02:33:24;;;;;;;;;;;5.60;99.90;;;;;;5117120;28;19939;-80
2022/02/28 02:35:57;;;;;;;;;;;5.60;99.90;;;;;;5108948;28;19930;-82
2022/02/28 02:38:27;;;;;;;;;;;5.70;99.90;;;;;;5094266;28;19924;-82
2022/02/28 02:40:56;;;;;;;;;;;5.50;99.90;;;;;;5086482;28;19926;-79
2022/02/28 02:43:24;;;;;;;;;;;5.70;99.90;;;;;;5113013;28;19934;-82
2022/02/28 02:45:55;;;;;;;;;;;5.60;99.90;;;;;;5122083;28;19928;-80
2022/02/28 02:48:24;;;;;;;;;;;5.60;99.90;;;;;;5094518;28;19920;-80
2022/02/28 02:51:08;;;;;;;;;;;5.60;99.90;;;;;;5093686;28;19930;-82
2022/02/28 02:53:37;;;;;;;;;;;4.60;99.90;;;;;;5110653;28;19924;-81
2022/02/28 02:56:06;;;;;;;;;;;5.70;99.90;;;;;;5110709;28;19932;-78
2022/02/28 02:58:38;;;;;;;;;;;5.60;99.90;;;;;;5110204;28;19931;-80
2022/02/28 03:01:10;;;;;;;;;;;5.60;99.90;;;;;;5078825;28;19930;-81
2022/02/28 03:03:39;;;;;;;;;;;5.80;99.90;;;;;;5108508;28;20029;-79
2022/02/28 03:06:07;;;;;;;;;;;5.60;99.90;;;;;;5075383;28;19939;-79
2022/02/28 03:08:38;;;;;;;;;;;5.60;99.90;;;;;;5075829;28;19924;-80
2022/02/28 03:11:08;;;;;;;;;;;5.80;99.90;;;;;;5108555;28;19940;-80
2022/02/28 03:13:35;;;;;;;;;;;5.40;99.90;;;;;;5124113;28;19924;-79
2022/02/28 03:16:05;;;;;;;;;;;5.70;99.90;;;;;;5090736;28;19932;-79
2022/02/28 03:18:35;;;;;;;;;;;6.10;99.90;;;;;;5058238;28;19928;-78
2022/02/28 03:21:04;;;;;;;;;;;5.90;99.90;;;;;;5074781;28;19928;-79
2022/02/28 03:23:33;;;;;;;;;;;5.80;99.90;;;;;;5108136;28;19924;-78
2022/02/28 03:26:07;;;;;;;;;;;6.10;99.90;;;;;;5125226;28;19940;-79
2022/02/28 03:28:41;;;;;;;;;;;5.90;99.90;;;;;;5123571;28;19935;-80
2022/02/28 03:31:09;;;;;;;;;;;6.00;99.90;;;;;;5109422;28;19934;-81
2022/02/28 03:33:37;;;;;;;;;;;5.90;99.90;;;;;;5100644;28;19924;-78
2022/02/28 03:36:05;;;;;;;;;;;6.10;99.90;;;;;;5093714;28;19938;-79
2022/02/28 03:38:37;;;;;;;;;;;6.10;99.90;;;;;;5112518;28;19934;-78
2022/02/28 03:41:05;;;;;;;;;;;6.00;99.90;;;;;;5112719;28;19942;-80
2022/02/28 03:43:36;;;;;;;;;;;6.10;99.90;;;;;;5063225;28;19928;-79
2022/02/28 03:46:08;;;;;;;;;;;6.10;99.90;;;;;;5106999;28;19931;-78
2022/02/28 03:48:55;;;;;;;;;;;6.20;99.90;;;;;;5091046;28;20530;-82
2022/02/28 03:51:39;;;;;;;;;;;6.10;99.90;;;;;;5083793;28;19925;-80
2022/02/28 03:54:12;;;;;;;;;;;6.00;99.90;;;;;;5090708;28;19928;-82
2022/02/28 03:56:42;;;;;;;;;;;6.00;99.90;;;;;;5124660;28;19935;-81
2022/02/28 03:59:12;;;;;;;;;;;6.10;99.90;;;;;;5090407;28;19931;-81
2022/02/28 04:01:41;;;;;;;;;;;6.00;99.90;;;;;;5090487;28;19925;-80
2022/02/28 04:04:20;;;;;;;;;;;6.00;99.90;;;;;;5058095;28;19930;-80
2022/02/28 04:06:50;;;;;;;;;;;5.40;99.90;;;;;;5108851;28;19924;-81
2022/02/28 04:09:17;;;;;;;;;;;5.90;99.90;;;;;;5140330;27;19938;-79
2022/02/28 04:11:48;;;;;;;;;;;6.10;99.90;;;;;;5094493;28;19924;-80
2022/02/28 04:14:17;;;;;;;;;;;5.90;99.90;;;;;;5128612;28;19924;-80
2022/02/28 04:16:44;;;;;;;;;;;6.00;99.90;;;;;;5083150;28;19927;-80
2022/02/28 04:19:42;;;;;;;;;;;6.00;99.90;;;;;;5124513;28;19930;-80
2022/02/28 04:22:12;;;;;;;;;;;6.00;99.90;;;;;;5078628;28;19912;-81
2022/02/28 04:24:44;;;;;;;;;;;6.10;99.90;;;;;;5112083;28;19926;-81
2022/02/28 04:27:13;;;;;;;;;;;6.10;99.90;;;;;;5113195;28;19930;-80
2022/02/28 04:29:45;;;;;;;;;;;6.20;99.90;;;;;;5108344;28;20333;-78
2022/02/28 04:32:21;;;;;;;;;;;6.10;99.90;;;;;;5074104;28;19931;-79
2022/02/28 04:34:57;;;;;;;;;;;6.30;99.90;;;;;;5090355;28;19924;-80
2022/02/28 04:37:29;;;;;;;;;;;6.30;99.90;;;;;;5090403;28;19928;-81
2022/02/28 04:39:59;;;;;;;;;;;6.40;99.90;;;;;;5090430;28;19931;-81
2022/02/28 04:42:30;;;;;;;;;;;5.50;99.90;;;;;;5090046;28;19935;-80
2022/02/28 04:44:58;;;;;;;;;;;6.00;99.90;;;;;;5090291;28;19938;-81
2022/02/28 04:47:28;;;;;;;;;;;6.40;99.90;;;;;;5106526;28;19924;-79
2022/02/28 04:50:15;;;;;;;;;;;6.60;99.90;;;;;;5106509;28;19958;-81
2022/02/28 04:52:48;;;;;;;;;;;6.50;99.90;;;;;;5107752;28;19934;-79
2022/02/28 04:55:22;;;;;;;;;;;5.50;99.90;;;;;;5095095;28;19935;-80
2022/02/28 04:57:50;;;;;;;;;;;6.50;99.90;;;;;;5082263;28;19930;-78
2022/02/28 05:00:39;;;;;;;;;;;6.80;99.90;;;;;;5106200;28;19931;-81
2022/02/28 05:03:07;;;;;;;;;;;6.60;99.90;;;;;;5123342;28;19924;-81
2022/02/28 05:05:37;;;;;;;;;;;6.80;99.90;;;;;;5106528;28;19943;-80
2022/02/28 05:08:06;;;;;;;;;;;6.90;99.90;;;;;;5090929;28;19932;-79
2022/02/28 05:10:34;;;;;;;;;;;6.80;99.90;;;;;;5089733;28;19924;-81
2022/02/28 05:13:15;;;;;;;;;;;6.70;99.90;;;;;;5072516;28;19932;-82
2022/02/28 05:15:43;;;;;;;;;;;6.80;99.90;;;;;;5090193;28;19924;-80
2022/02/28 05:18:15;;;;;;;;;;;6.80;99.90;;;;;;5071629;28;20408;-80
2022/02/28 05:20:44;;;;;;;;;;;7.00;99.90;;;;;;5085873;28;19939;-80
2022/02/28 05:23:12;;;;;;;;;;;6.90;99.90;;;;;;5069557;28;20546;-81
2022/02/28 05:25:42;;;;;;;;;;;6.90;99.90;;;;;;5084371;28;19939;-80
2022/02/28 05:28:30;;;;;;;;;;;7.00;99.90;;;;;;5125728;28;19937;-79
2022/02/28 05:31:00;;;;;;;;;;;7.00;99.90;;;;;;5126764;28;19938;-79
2022/02/28 05:33:28;;;;;;;;;;;7.10;99.90;;;;;;5116587;28;20385;-79
2022/02/28 05:35:56;;;;;;;;;;;7.10;99.90;;;;;;5093750;28;19928;-79
2022/02/28 05:38:44;;;;;;;;;;;7.30;99.90;;;;;;5086345;28;19930;-81
2022/02/28 05:41:15;;;;;;;;;;;7.20;99.90;;;;;;5056272;28;19932;-79
2022/02/28 05:43:50;;;;;;;;;;;5.60;99.90;;;;;;5091300;28;19908;-78
2022/02/28 05:46:20;;;;;;;;;;;7.20;99.90;;;;;;5090174;28;19924;-80
2022/02/28 05:48:57;;;;;;;;;;;7.30;99.90;;;;;;5104884;28;20448;-81
2022/02/28 05:51:31;;;;;;;;;;;6.40;99.90;;;;;;5077029;28;19924;-81
2022/02/28 05:54:00;;;;;;;;;;;6.50;99.90;;;;;;5086609;28;19935;-80
2022/02/28 05:56:29;;;;;;;;;;;7.50;99.90;;;;;;5089264;28;19920;-81
2022/02/28 05:58:59;;;;;;;;;;;7.70;99.90;;;;;;5104098;28;19924;-81
2022/02/28 06:01:27;;;;;;;;;;;7.70;99.90;;;;;;5069195;28;19928;-80
2022/02/28 06:03:57;;;;;;;;;;;7.40;99.90;;;;;;5100968;28;19924;-80
2022/02/28 06:06:30;;;;;;;;;;;6.90;99.90;;;;;;5084544;28;19928;-80
2022/02/28 06:08:58;;;;;;;;;;;7.40;99.90;;;;;;5084793;28;19929;-80
2022/02/28 06:11:30;;;;;;;;;;;7.60;99.90;;;;;;5066946;28;19935;-81
2022/02/28 06:13:58;;;;;;;;;;;7.60;99.90;;;;;;5101140;28;19935;-81
2022/02/28 06:16:27;;;;;;;;;;;7.40;99.90;;;;;;5099730;28;20419;-79
2022/02/28 06:19:01;;;;;;;;;;;7.40;99.90;;;;;;4742486;28;10000149;-80
2022/02/28 06:21:28;;;;;;;;;;;7.50;99.90;;;;;;5094998;28;19939;-80
2022/02/28 06:23:57;;;;;;;;;;;7.50;99.90;;;;;;5087407;28;20111;-79
2022/02/28 06:26:25;;;;;;;;;;;7.50;99.90;;;;;;5074038;28;19927;-80
2022/02/28 06:28:59;;;;;;;;;;;7.50;99.90;;;;;;5110135;28;20360;-81
2022/02/28 06:31:29;;;;;;;;;;;7.50;99.90;;;;;;5122915;28;19958;-80
2022/02/28 06:33:57;;;;;;;;;;;7.60;99.90;;;;;;5104309;28;19935;-81
2022/02/28 06:36:26;;;;;;;;;;;7.50;99.90;;;;;;5089033;28;20407;-83
2022/02/28 06:38:56;;;;;;;;;;;7.60;99.90;;;;;;5104125;28;19924;-80
2022/02/28 06:41:27;;;;;;;;;;;7.50;99.90;;;;;;5087322;28;19928;-78
2022/02/28 06:43:56;;;;;;;;;;;7.60;99.90;;;;;;5086486;28;19920;-79
2022/02/28 06:46:24;;;;;;;;;;;7.60;99.90;;;;;;5088254;28;20696;-80
2022/02/28 06:48:53;;;;;;;;;;;6.00;99.90;;;;;;5088215;28;19924;-80
2022/02/28 06:51:22;;;;;;;;;;;7.50;99.90;;;;;;5117749;28;19923;-79
2022/02/28 06:53:52;;;;;;;;;;;7.90;99.90;;;;;;5126060;28;19923;-81
2022/02/28 06:56:21;;;;;;;;;;;7.60;99.90;;;;;;5115400;28;19939;-81
2022/02/28 06:58:49;;;;;;;;;;;7.70;99.90;;;;;;5087096;28;19924;-82
2022/02/28 07:01:17;;;;;;;;;;;7.60;99.90;;;;;;5069784;28;19924;-80
2022/02/28 07:03:51;;;;;;;;;;;7.70;99.90;;;;;;5087464;28;19924;-80
2022/02/28 07:06:22;;;;;;;;;;;8.40;99.90;;;;;;5106675;28;19925;-80
2022/02/28 07:08:52;;;;;;;;;;;6.90;99.90;;;;;;5104370;28;19924;-80
2022/02/28 07:11:22;;;;;;;;;;;7.70;99.90;;;;;;5104752;28;19954;-80
2022/02/28 07:13:50;;;;;;;;;;;7.80;99.90;;;;;;5075198;28;19928;-80
2022/02/28 07:16:18;;;;;;;;;;;7.80;99.90;;;;;;5111472;28;19930;-82
2022/02/28 07:18:46;;;;;;;;;;;7.90;99.90;;;;;;5103729;28;19931;-80
2022/02/28 07:21:14;;;;;;;;;;;7.50;99.90;;;;;;5086052;28;19947;-82
2022/02/28 07:23:42;;;;;;;;;;;7.80;99.90;;;;;;5096719;28;19923;-78
2022/02/28 07:26:11;;;;;;;;;;;6.60;99.90;;;;;;5121339;28;19927;-80
2022/02/28 07:28:41;;;;;;;;;;;9.90;99.90;;;;;;5101416;28;19932;-81
2022/02/28 07:31:32;;;;;;;;;;;6.20;99.90;;;;;;5080049;28;19928;-78
2022/02/28 07:34:06;;;;;;;;;;;7.50;99.90;;;;;;5120983;28;19928;-80
2022/02/28 07:36:36;;;;;;;;;;;8.20;99.90;;;;;;5101112;28;19924;-79
2022/02/28 07:39:06;;;;;;;;;;;8.00;99.90;;;;;;5086534;28;20622;-79
2022/02/28 07:41:43;;;;;;;;;;;8.40;99.90;;;;;;5106158;28;19924;-79
2022/02/28 07:44:23;;;;;;;;;;;7.90;99.90;;;;;;5114588;28;19930;-84
2022/02/28 07:46:58;;;;;;;;;;;7.70;99.90;;;;;;5092144;28;19930;-82
2022/02/28 07:49:33;;;;;;;;;;;7.90;99.90;;;;;;5093997;28;20818;-79
2022/02/28 07:52:13;;;;;;;;;;;8.00;99.90;;;;;;5103925;28;19924;-81
2022/02/28 07:54:41;;;;;;;;;;;7.90;99.90;;;;;;5103984;28;19924;-79
2022/02/28 07:57:09;;;;;;;;;;;8.00;99.90;;;;;;5117161;28;19924;-80
2022/02/28 07:59:37;;;;;;;;;;;9.70;99.90;;;;;;5097835;28;19935;-80
2022/02/28 08:02:09;;;;;;;;;;;8.00;99.90;;;;;;5065928;28;19933;-80
2022/02/28 08:04:38;;;;;;;;;;;8.50;99.90;;;;;;5066178;28;19924;-79
2022/02/28 08:07:06;;;;;;;;;;;7.30;99.90;;;;;;5084168;28;19925;-80
2022/02/28 08:09:34;;;;;;;;;;;8.10;99.90;;;;;;5082888;28;19924;-80
2022/02/28 08:12:02;;;;;;;;;;;8.10;99.90;;;;;;5049569;28;19931;-80
2022/02/28 08:14:31;;;;;;;;;;;8.10;99.90;;;;;;5050540;28;19928;-81
2022/02/28 08:17:00;;;;;;;;;;;8.20;99.90;;;;;;5067841;28;20372;-82
2022/02/28 08:19:28;;;;;;;;;;;8.30;99.90;;;;;;5104292;28;19932;-81
2022/02/28 08:21:56;;;;;;;;;;;8.40;99.90;;;;;;5073082;28;19935;-81
2022/02/28 08:24:24;;;;;;;;;;;8.50;99.90;;;;;;5051083;28;19924;-83
2022/02/28 08:26:52;;;;;;;;;;;8.50;99.90;;;;;;5085112;28;19925;-82
2022/02/28 08:29:20;;;;;;;;;;;8.60;99.90;;;;;;5083109;28;19928;-85
2022/02/28 08:31:48;;;;;;;;;;;8.70;99.90;;;;;;5056492;28;19925;-82
2022/02/28 08:34:19;;;;;;;;;;;8.80;99.90;;;;;;5085407;28;19944;-80
2022/02/28 08:37:04;;;;;;;;;;;8.90;99.90;;;;;;5079895;28;19931;-83
2022/02/28 08:40:14;;;;;;;;;;;;;;;;;;;;;
2022/02/28 08:42:57;;;;;;;;;;;9.10;99.90;;;;;;5046571;28;19936;-81
2022/02/28 08:45:25;;;;;;;;;;;9.10;99.90;;;;;;5083079;28;19951;-80
2022/02/28 08:47:53;;;;;;;;;;;9.20;99.90;;;;;;5100116;28;19928;-80
2022/02/28 08:50:20;;;;;;;;;;;9.20;99.90;;;;;;5050817;28;20227;-81
2022/02/28 08:52:49;;;;;;;;;;;9.40;99.90;;;;;;5082399;28;19924;-80
2022/02/28 08:55:17;;;;;;;;;;;9.20;99.90;;;;;;5066957;28;19928;-82
2022/02/28 08:57:44;;;;;;;;;;;9.60;99.90;;;;;;5089105;28;20349;-81
2022/02/28 09:00:12;;;;;;;;;;;9.70;99.90;;;;;;5089204;28;19924;-81
2022/02/28 09:02:41;;;;;;;;;;;9.80;99.90;;;;;;5064643;28;19938;-80
2022/02/28 09:05:10;;;;;;;;;;;9.90;99.90;;;;;;5085997;28;19924;-80
2022/02/28 09:07:38;;;;;;;;;;;10.00;99.90;;;;;;5069316;28;19939;-81
2022/02/28 09:10:07;;;;;;;;;;;10.10;99.90;;;;;;5067891;28;19924;-83
2022/02/28 09:12:35;;;;;;;;;;;10.30;99.90;;;;;;5082397;28;19928;-80
2022/02/28 09:15:03;;;;;;;;;;;10.20;99.90;;;;;;5065265;28;19924;-82
2022/02/28 09:17:32;;;;;;;;;;;10.30;99.90;;;;;;5077883;28;19925;-79
2022/02/28 09:20:00;;;;;;;;;;;10.40;99.90;;;;;;5046293;28;19935;-81
2022/02/28 09:22:29;;;;;;;;;;;10.40;99.90;;;;;;5064468;28;20226;-82
2022/02/28 09:24:57;;;;;;;;;;;10.60;99.90;;;;;;5064047;28;19929;-80
2022/02/28 09:27:26;;;;;;;;;;;10.90;99.90;;;;;;5077839;28;19939;-82
2022/02/28 09:30:14;;;;;;;;;;;10.80;99.90;;;;;;5093814;28;19932;-81
2022/02/28 09:32:51;;;;;;;;;;;10.90;99.90;;;;;;5074486;28;20218;-82
2022/02/28 09:35:19;;;;;;;;;;;11.00;99.90;;;;;;5063155;28;19924;-82
2022/02/28 09:37:49;;;;;;;;;;;12.40;99.90;;;;;;5078820;28;19958;-82
2022/02/28 09:40:17;;;;;;;;;;;11.20;99.90;;;;;;5100783;28;19947;-80
2022/02/28 09:43:04;;;;;;;;;;;11.30;99.90;;;;;;5093766;28;19958;-80
2022/02/28 09:45:51;;;;;;;;;;;11.40;99.90;;;;;;5091607;28;19933;-80
2022/02/28 09:48:42;;;;;;;;;;;11.60;99.90;;;;;;5078637;28;19935;-80
2022/02/28 09:51:49;;;;;;;;;;;11.70;99.90;;;;;;5017761;28;19941;-79
2022/02/28 09:54:36;;;;;;;;;;;11.70;99.90;;;;;;5027046;28;19936;-80
2022/02/28 09:57:23;;;;;;;;;;;11.40;99.90;;;;;;5075036;28;19932;-81
2022/02/28 10:00:12;;;;;;;;;;;11.80;99.90;;;;;;5104108;28;19924;-80
2022/02/28 10:02:47;;;;;;;;;;;11.80;99.90;;;;;;5101606;28;19939;-79
2022/02/28 10:05:20;;;;;;;;;;;11.80;99.90;;;;;;5078890;28;19931;-81
2022/02/28 10:07:55;;;;;;;;;;;12.00;99.90;;;;;;5089844;28;20144;-81
2022/02/28 10:10:26;;;;;;;;;;;12.00;99.90;;;;;;5095741;28;19939;-83
2022/02/28 10:12:54;;;;;;;;;;;12.20;99.90;;;;;;5125374;28;19924;-80
2022/02/28 10:15:26;;;;;;;;;;;12.20;99.90;;;;;;5101419;28;19928;-82
2022/02/28 10:17:57;;;;;;;;;;;12.30;99.90;;;;;;5066737;28;20389;-81
2022/02/28 10:20:33;;;;;;;;;;;12.40;99.90;;;;;;5117983;28;20523;-84
2022/02/28 10:23:02;;;;;;;;;;;12.50;99.90;;;;;;5120368;28;19942;-82
2022/02/28 10:25:48;;;;;;;;;;;12.20;99.90;;;;;;5083625;28;19930;-81
2022/02/28 10:28:45;;;;;;;;;;;12.60;99.90;;;;;;5041264;28;19926;-84
2022/02/28 10:31:37;;;;;;;;;;;12.50;99.90;;;;;;5118907;28;19932;-83
2022/02/28 10:34:25;;;;;;;;;;;12.60;99.90;;;;;;5117537;28;20312;-82
2022/02/28 10:37:12;;;;;;;;;;;12.60;99.90;;;;;;5093555;28;21165;-81
2022/02/28 10:39:42;;;;;;;;;;;12.50;99.90;;;;;;5100306;28;19935;-82
2022/02/28 10:42:18;;;;;;;;;;;12.70;99.90;;;;;;5111875;28;19934;-80
2022/02/28 10:44:48;;;;;;;;;;;12.70;99.90;;;;;;5127615;28;19939;-81
2022/02/28 10:47:16;;;;;;;;;;;12.80;99.90;;;;;;5078706;28;20177;-80
2022/02/28 10:49:43;;;;;;;;;;;12.80;99.90;;;;;;5098825;28;20341;-80
2022/02/28 10:52:12;;;;;;;;;;;13.00;99.90;;;;;;5086348;28;19924;-79
2022/02/28 10:54:42;;;;;;;;;;;13.10;99.90;;;;;;5108635;28;19928;-81
2022/02/28 10:57:18;;;;;;;;;;;12.90;99.90;;;;;;5086165;28;20213;-80
2022/02/28 10:59:51;;;;;;;;;;;13.00;99.90;;;;;;5101828;28;19930;-80
2022/02/28 11:02:26;;;;;;;;;;;13.10;99.90;;;;;;5103704;28;20428;-80
2022/02/28 11:05:08;;;;;;;;;;;13.20;99.90;;;;;;5086853;28;19932;-79
2022/02/28 11:07:41;;;;;;;;;;;13.10;99.90;;;;;;5096566;28;19927;-80
2022/02/28 11:10:15;;;;;;;;;;;13.30;99.90;;;;;;5115376;28;19932;-80
2022/02/28 11:12:44;;;;;;;;;;;13.80;99.90;;;;;;5093549;28;19938;-82
2022/02/28 11:15:15;;;;;;;;;;;13.60;99.90;;;;;;5115733;28;19932;-81
2022/02/28 11:17:45;;;;;;;;;;;13.50;99.90;;;;;;5115768;28;19928;-78
2022/02/28 11:20:17;;;;;;;;;;;13.50;99.90;;;;;;5130287;27;19946;-80
2022/02/28 11:22:46;;;;;;;;;;;13.40;99.90;;;;;;5114896;28;19928;-80
2022/02/28 11:25:19;;;;;;;;;;;13.40;99.90;;;;;;5062760;28;19928;-80
2022/02/28 11:27:49;;;;;;;;;;;13.40;99.90;;;;;;5099279;28;20558;-81
2022/02/28 11:30:23;;;;;;;;;;;13.40;99.90;;;;;;5115613;28;19932;-80
2022/02/28 11:32:55;;;;;;;;;;;13.50;99.90;;;;;;5122835;28;19936;-81
2022/02/28 11:35:38;;;;;;;;;;;13.40;99.90;;;;;;5113753;28;19931;-79
2022/02/28 11:38:32;;;;;;;;;;;12.20;99.90;;;;;;5132704;27;19934;-82
2022/02/28 11:41:01;;;;;;;;;;;13.50;99.90;;;;;;5114615;28;19928;-80
2022/02/28 11:43:31;;;;;;;;;;;13.60;99.90;;;;;;5112193;28;19928;-80
2022/02/28 11:46:00;;;;;;;;;;;13.60;99.90;;;;;;5136709;27;19924;-81
2022/02/28 11:48:43;;;;;;;;;;;13.70;99.90;;;;;;5122117;28;19927;-83
2022/02/28 11:51:20;;;;;;;;;;;13.80;99.90;;;;;;5078132;28;19932;-81
2022/02/28 11:53:51;;;;;;;;;;;13.70;99.90;;;;;;5116608;28;19942;-80
2022/02/28 11:56:19;;;;;;;;;;;14.00;99.90;;;;;;5087506;28;19923;-80
2022/02/28 11:58:49;;;;;;;;;;;14.00;99.90;;;;;;5091466;28;19928;-82
2022/02/28 12:01:18;;;;;;;;;;;14.10;99.90;;;;;;5119338;28;19931;-83
2022/02/28 12:03:50;;;;;;;;;;;14.10;99.90;;;;;;5119920;28;19923;-81
2022/02/28 12:06:36;;;;;;;;;;;14.40;99.90;;;;;;5102168;28;19964;-81
2022/02/28 12:09:04;;;;;;;;;;;14.40;99.90;;;;;;5120432;28;19928;-79
2022/02/28 12:11:32;;;;;;;;;;;14.50;99.90;;;;;;5107854;28;19924;-81
2022/02/28 12:14:01;;;;;;;;;;;13.90;99.90;;;;;;5103307;28;19934;-81
2022/02/28 12:19:27;;;;;;;;;;;14.20;99.90;;;;;;5081358;28;19928;-80
2022/02/28 12:21:59;;;;;;;;;;;14.10;99.90;;;;;;5111250;28;19934;-81
2022/02/28 12:25:04;;;;;;;;;;;14.00;99.90;;;;;;5083897;28;19938;-80
2022/02/28 12:27:39;;;;;;;;;;;14.10;99.90;;;;;;5074039;28;19924;-81
2022/02/28 12:30:38;;;;;;;;;;;13.80;99.90;;;;;;5078548;28;19932;-82
2022/02/28 12:33:06;;;;;;;;;;;13.60;99.90;;;;;;5094887;28;19928;-80
2022/02/28 12:35:38;;;;;;;;;;;13.50;99.90;;;;;;5094967;28;20292;-81
2022/02/28 12:38:07;;;;;;;;;;;13.50;99.90;;;;;;5098894;28;19947;-81
2022/02/28 12:40:36;;;;;;;;;;;12.80;99.90;;;;;;5109896;28;19924;-81
2022/02/28 12:43:05;;;;;;;;;;;12.60;99.90;;;;;;5107457;28;19935;-81
2022/02/28 12:45:35;;;;;;;;;;;13.60;99.90;;;;;;5105900;28;19924;-82
2022/02/28 12:48:05;;;;;;;;;;;13.80;99.90;;;;;;5098085;28;19920;-81
2022/02/28 12:50:33;;;;;;;;;;;13.60;99.90;;;;;;5101782;28;19924;-83
2022/02/28 12:53:02;;;;;;;;;;;13.70;99.90;;;;;;5082730;28;19924;-83
2022/02/28 12:55:31;;;;;;;;;;;12.60;99.90;;;;;;5051902;28;19931;-83
2022/02/28 12:58:01;;;;;;;;;;;13.70;99.90;;;;;;5085165;28;19924;-81
2022/02/28 13:00:35;;;;;;;;;;;14.20;99.90;;;;;;5104605;28;19942;-80
2022/02/28 13:03:03;;;;;;;;;;;13.80;99.90;;;;;;5104630;28;19924;-81
2022/02/28 13:05:34;;;;;;;;;;;13.70;99.90;;;;;;5088753;28;19935;-83
2022/02/28 13:08:03;;;;;;;;;;;13.70;99.90;;;;;;5121467;28;19924;-82
2022/02/28 13:10:34;;;;;;;;;;;13.80;99.90;;;;;;5101177;28;19934;-82
2022/02/28 13:13:05;;;;;;;;;;;13.70;99.90;;;;;;5050675;28;20373;-82
2022/02/28 13:15:44;;;;;;;;;;;13.70;99.90;;;;;;5085923;28;19931;-84
2022/02/28 13:18:12;;;;;;;;;;;13.70;99.90;;;;;;5067647;28;19924;-81
2022/02/28 13:20:46;;;;;;;;;;;13.70;99.90;;;;;;5107720;28;19938;-83
2022/02/28 13:23:14;;;;;;;;;;;15.10;99.90;;;;;;5108363;28;19924;-82
2022/02/28 13:25:48;;;;;;;;;;;13.80;99.90;;;;;;5125824;28;19928;-82
2022/02/28 13:28:16;;;;;;;;;;;14.90;99.90;;;;;;5106606;28;19928;-81
2022/02/28 13:30:50;;;;;;;;;;;14.00;99.90;;;;;;5105322;28;20513;-83
2022/02/28 13:33:21;;;;;;;;;;;14.30;99.90;;;;;;5111908;28;20128;-83
2022/02/28 13:35:50;;;;;;;;;;;14.20;99.90;;;;;;5114713;28;19923;-81
2022/02/28 13:38:19;;;;;;;;;;;14.30;99.90;;;;;;5101638;28;19943;-80
2022/02/28 13:40:47;;;;;;;;;;;14.20;99.90;;;;;;5103347;28;20403;-81
2022/02/28 13:43:17;;;;;;;;;;;14.20;99.90;;;;;;5103797;28;20002;-80
2022/02/28 13:45:48;;;;;;;;;;;14.20;99.90;;;;;;5094598;28;20644;-81
2022/02/28 13:48:16;;;;;;;;;;;14.10;99.90;;;;;;5101147;28;19935;-79
2022/02/28 13:50:45;;;;;;;;;;;14.00;99.90;;;;;;5121450;27;19924;-81
2022/02/28 13:53:13;;;;;;;;;;;14.00;99.90;;;;;;5071008;28;20006;-81
2022/02/28 13:55:42;;;;;;;;;;;13.90;99.90;;;;;;5097861;28;19924;-81
2022/02/28 13:58:12;;;;;;;;;;;13.90;99.90;;;;;;5079629;28;19959;-80
2022/02/28 14:00:51;;;;;;;;;;;13.90;99.90;;;;;;5097809;28;19935;-82
2022/02/28 14:03:21;;;;;;;;;;;13.90;99.90;;;;;;5081702;28;20483;-80
2022/02/28 14:05:52;;;;;;;;;;;14.00;99.90;;;;;;5095976;28;19928;-82
2022/02/28 14:08:29;;;;;;;;;;;13.60;99.90;;;;;;5083780;28;19924;-80
2022/02/28 14:11:08;;;;;;;;;;;14.30;99.90;;;;;;5082674;28;19924;-80
2022/02/28 14:13:41;;;;;;;;;;;13.70;99.90;;;;;;5076440;28;19924;-82
2022/02/28 14:16:22;;;;;;;;;;;13.70;99.90;;;;;;5100165;28;19928;-80
2022/02/28 14:19:05;;;;;;;;;;;13.70;99.90;;;;;;5084084;28;19939;-80
2022/02/28 14:22:08;;;;;;;;;;;13.80;99.90;;;;;;4749804;28;10000151;-79
2022/02/28 14:25:11;;;;;;;;;;;13.70;99.90;;;;;;5052485;28;19931;-80
2022/02/28 14:28:15;;;;;;;;;;;13.70;99.90;;;;;;5093329;28;19952;-79
2022/02/28 14:31:03;;;;;;;;;;;13.70;99.90;;;;;;5092607;28;19928;-80
2022/02/28 14:33:54;;;;;;;;;;;13.70;99.90;;;;;;5105803;28;19924;-80
2022/02/28 14:36:24;;;;;;;;;;;13.70;99.90;;;;;;5086500;28;19924;-80
2022/02/28 14:38:54;;;;;;;;;;;13.60;99.90;;;;;;5070357;28;20121;-80
2022/02/28 14:41:23;;;;;;;;;;;13.50;99.90;;;;;;5086757;28;19928;-80
2022/02/28 14:43:53;;;;;;;;;;;13.40;99.90;;;;;;5105219;28;20377;-80
2022/02/28 14:46:21;;;;;;;;;;;13.40;99.90;;;;;;5104835;28;19927;-80
2022/02/28 14:48:50;;;;;;;;;;;13.40;99.90;;;;;;5104187;28;19924;-81
2022/02/28 14:51:17;;;;;;;;;;;13.40;99.90;;;;;;5088361;28;19924;-80
2022/02/28 14:53:46;;;;;;;;;;;13.40;99.90;;;;;;5085867;28;19951;-80
2022/02/28 14:56:14;;;;;;;;;;;13.40;99.90;;;;;;5101191;28;19939;-80
2022/02/28 14:58:42;;;;;;;;;;;13.50;99.90;;;;;;5086419;28;19931;-80